sensor_id;sensor_type;location;lat;lon;timestamp;pressure;altitude;pressure_sealevel;temperature;humidity
8039;BME280;4062;49.844;8.120;2023-10-13T00:00:36;99283.25;;;17.15;59.33
8039;BME280;4062;49.844;8.120;2023-10-13T00:02:38;99291.25;;;17.15;59.37
8039;BME280;4062;49.844;8.120;2023-10-13T00:04:59;99280.59;;;17.15;59.56
8039;BME280;4062;49.844;8.120;2023-10-13T00:07:20;99276.97;;;17.16;59.37
8039;BME280;4062;49.844;8.120;2023-10-13T00:09:39;99278.78;;;17.15;59.51
8039;BME280;4062;49.844;8.120;2023-10-13T00:12:00;99271.72;;;17.14;59.50
8039;BME280;4062;49.844;8.120;2023-10-13T00:14:01;99276.13;;;17.15;59.39
8039;BME280;4062;49.844;8.120;2023-10-13T00:16:04;99269.91;;;17.15;59.39
8039;BME280;4062;49.844;8.120;2023-10-13T00:18:10;99274.41;;;17.14;59.54
8039;BME280;4062;49.844;8.120;2023-10-13T00:20:15;99278.78;;;17.15;59.59
8039;BME280;4062;49.844;8.120;2023-10-13T00:22:18;99269.91;;;17.15;59.51
8039;BME280;4062;49.844;8.120;2023-10-13T00:24:21;99269.91;;;17.15;59.57
8039;BME280;4062;49.844;8.120;2023-10-13T00:26:28;99263.72;;;17.14;59.60
8039;BME280;4062;49.844;8.120;2023-10-13T00:28:33;99262.78;;;17.15;59.59
8039;BME280;4062;49.844;8.120;2023-10-13T00:30:44;99255.63;;;17.16;59.40
8039;BME280;4062;49.844;8.120;2023-10-13T00:32:53;99255.72;;;17.14;59.54
8039;BME280;4062;49.844;8.120;2023-10-13T00:34:58;99253.88;;;17.15;59.52
8039;BME280;4062;49.844;8.120;2023-10-13T00:37:05;99254.84;;;17.14;59.41
8039;BME280;4062;49.844;8.120;2023-10-13T00:39:19;99254.75;;;17.15;59.54
8039;BME280;4062;49.844;8.120;2023-10-13T00:41:23;99256.56;;;17.15;59.46
8039;BME280;4062;49.844;8.120;2023-10-13T00:43:48;99253.03;;;17.14;59.29
8039;BME280;4062;49.844;8.120;2023-10-13T00:46:06;99254.75;;;17.15;59.14
8039;BME280;4062;49.844;8.120;2023-10-13T00:48:09;99260.09;;;17.15;59.57
8039;BME280;4062;49.844;8.120;2023-10-13T00:50:12;99256.56;;;17.15;59.54
8039;BME280;4062;49.844;8.120;2023-10-13T00:52:19;99259.22;;;17.15;59.57
8039;BME280;4062;49.844;8.120;2023-10-13T00:54:20;99254.75;;;17.15;59.54
8039;BME280;4062;49.844;8.120;2023-10-13T00:56:28;99250.38;;;17.14;59.51
8039;BME280;4062;49.844;8.120;2023-10-13T00:58:29;99253.03;;;17.14;59.47
8039;BME280;4062;49.844;8.120;2023-10-13T01:00:31;99253.88;;;17.15;59.37
8039;BME280;4062;49.844;8.120;2023-10-13T01:02:33;99248.53;;;17.15;59.47
8039;BME280;4062;49.844;8.120;2023-10-13T01:04:41;99258.38;;;17.14;59.50
8039;BME280;4062;49.844;8.120;2023-10-13T01:06:43;99248.53;;;17.15;59.65
8039;BME280;4062;49.844;8.120;2023-10-13T01:08:48;99243.22;;;17.15;59.54
8039;BME280;4062;49.844;8.120;2023-10-13T01:10:52;99244.09;;;17.15;59.33
8039;BME280;4062;49.844;8.120;2023-10-13T01:12:55;99242.34;;;17.14;59.55
8039;BME280;4062;49.844;8.120;2023-10-13T01:14:57;99240.53;;;17.15;59.47
8039;BME280;4062;49.844;8.120;2023-10-13T01:16:58;99237.88;;;17.15;59.32
8039;BME280;4062;49.844;8.120;2023-10-13T01:19:02;99238.75;;;17.15;59.44
8039;BME280;4062;49.844;8.120;2023-10-13T01:21:06;99235.19;;;17.15;59.49
8039;BME280;4062;49.844;8.120;2023-10-13T01:23:11;99233.41;;;17.15;59.36
8039;BME280;4062;49.844;8.120;2023-10-13T01:25:19;99241.41;;;17.15;59.56
8039;BME280;4062;49.844;8.120;2023-10-13T01:27:20;99238.75;;;17.15;59.20
8039;BME280;4062;49.844;8.120;2023-10-13T01:29:26;99233.41;;;17.15;59.45
8039;BME280;4062;49.844;8.120;2023-10-13T01:31:30;99233.41;;;17.15;59.31
8039;BME280;4062;49.844;8.120;2023-10-13T01:33:38;99235.19;;;17.15;59.57
8039;BME280;4062;49.844;8.120;2023-10-13T01:35:39;99227.19;;;17.15;59.49
8039;BME280;4062;49.844;8.120;2023-10-13T01:37:48;99231.69;;;17.14;59.51
8039;BME280;4062;49.844;8.120;2023-10-13T01:39:50;99214.72;;;17.15;59.43
8039;BME280;4062;49.844;8.120;2023-10-13T01:41:52;99219.19;;;17.15;59.33
8039;BME280;4062;49.844;8.120;2023-10-13T01:43:57;99227.19;;;17.15;59.33
8039;BME280;4062;49.844;8.120;2023-10-13T01:45:58;99227.19;;;17.15;59.51
8039;BME280;4062;49.844;8.120;2023-10-13T01:47:59;99215.66;;;17.14;59.32
8039;BME280;4062;49.844;8.120;2023-10-13T01:50:02;99209.38;;;17.15;59.30
8039;BME280;4062;49.844;8.120;2023-10-13T01:52:15;99206.72;;;17.15;59.46
8039;BME280;4062;49.844;8.120;2023-10-13T01:54:17;99205.00;;;17.14;59.26
8039;BME280;4062;49.844;8.120;2023-10-13T01:56:20;99206.72;;;17.15;59.33
8039;BME280;4062;49.844;8.120;2023-10-13T01:58:24;99201.38;;;17.15;59.34
8039;BME280;4062;49.844;8.120;2023-10-13T02:00:27;99197.81;;;17.15;59.53
8039;BME280;4062;49.844;8.120;2023-10-13T02:02:32;99200.50;;;17.15;59.44
8039;BME280;4062;49.844;8.120;2023-10-13T02:04:34;99200.50;;;17.15;59.37
8039;BME280;4062;49.844;8.120;2023-10-13T02:06:36;99195.16;;;17.15;59.34
8039;BME280;4062;49.844;8.120;2023-10-13T02:08:37;99188.97;;;17.14;59.31
8039;BME280;4062;49.844;8.120;2023-10-13T02:10:41;99187.16;;;17.15;59.58
8039;BME280;4062;49.844;8.120;2023-10-13T02:12:44;99185.34;;;17.15;59.32
8039;BME280;4062;49.844;8.120;2023-10-13T02:14:47;99190.69;;;17.15;59.46
8039;BME280;4062;49.844;8.120;2023-10-13T02:16:49;99184.47;;;17.15;59.47
8039;BME280;4062;49.844;8.120;2023-10-13T02:18:51;99179.13;;;17.15;59.51
8039;BME280;4062;49.844;8.120;2023-10-13T02:20:54;99176.47;;;17.15;59.31
8039;BME280;4062;49.844;8.120;2023-10-13T02:22:56;99172.00;;;17.15;59.53
8039;BME280;4062;49.844;8.120;2023-10-13T02:24:58;99172.00;;;17.15;59.53
8039;BME280;4062;49.844;8.120;2023-10-13T02:27:06;99167.63;;;17.14;59.32
8039;BME280;4062;49.844;8.120;2023-10-13T02:29:14;99173.78;;;17.15;59.56
8039;BME280;4062;49.844;8.120;2023-10-13T02:31:18;99172.94;;;17.14;59.54
8039;BME280;4062;49.844;8.120;2023-10-13T02:33:21;99160.44;;;17.15;59.45
8039;BME280;4062;49.844;8.120;2023-10-13T02:35:23;99166.66;;;17.15;59.54
8039;BME280;4062;49.844;8.120;2023-10-13T02:37:31;99161.34;;;17.15;59.34
8039;BME280;4062;49.844;8.120;2023-10-13T02:39:33;99155.13;;;17.15;59.50
8039;BME280;4062;49.844;8.120;2023-10-13T02:41:37;99147.97;;;17.15;59.58
8039;BME280;4062;49.844;8.120;2023-10-13T02:43:38;99138.25;;;17.14;59.53
8039;BME280;4062;49.844;8.120;2023-10-13T02:45:39;99139.09;;;17.15;59.46
8039;BME280;4062;49.844;8.120;2023-10-13T02:47:42;99145.31;;;17.15;59.34
8039;BME280;4062;49.844;8.120;2023-10-13T02:49:45;99146.25;;;17.14;59.48
8039;BME280;4062;49.844;8.120;2023-10-13T02:51:49;99136.44;;;17.15;59.51
8039;BME280;4062;49.844;8.120;2023-10-13T02:53:50;99146.25;;;17.14;59.33
8039;BME280;4062;49.844;8.120;2023-10-13T02:55:54;99139.09;;;17.15;59.49
8039;BME280;4062;49.844;8.120;2023-10-13T02:58:07;99134.72;;;17.14;59.32
8039;BME280;4062;49.844;8.120;2023-10-13T03:00:10;99132.91;;;17.14;59.50
8039;BME280;4062;49.844;8.120;2023-10-13T03:02:17;99137.31;;;17.15;59.60
8039;BME280;4062;49.844;8.120;2023-10-13T03:04:18;99135.56;;;17.14;59.46
8039;BME280;4062;49.844;8.120;2023-10-13T03:06:27;99136.44;;;17.15;59.26
8039;BME280;4062;49.844;8.120;2023-10-13T03:08:35;99140.91;;;17.14;59.35
8039;BME280;4062;49.844;8.120;2023-10-13T03:10:38;99130.25;;;17.14;59.57
8039;BME280;4062;49.844;8.120;2023-10-13T03:12:47;99132.91;;;17.14;59.32
8039;BME280;4062;49.844;8.120;2023-10-13T03:14:52;99129.28;;;17.15;59.38
8039;BME280;4062;49.844;8.120;2023-10-13T03:16:59;99120.41;;;17.15;59.30
8039;BME280;4062;49.844;8.120;2023-10-13T03:19:05;99125.75;;;17.15;59.57
8039;BME280;4062;49.844;8.120;2023-10-13T03:21:09;99128.41;;;17.15;59.38
8039;BME280;4062;49.844;8.120;2023-10-13T03:23:10;99116.91;;;17.14;59.33
8039;BME280;4062;49.844;8.120;2023-10-13T03:25:15;99115.06;;;17.15;59.32
8039;BME280;4062;49.844;8.120;2023-10-13T03:27:26;99115.06;;;17.15;59.52
8039;BME280;4062;49.844;8.120;2023-10-13T03:29:41;99100.88;;;17.14;59.34
8039;BME280;4062;49.844;8.120;2023-10-13T03:31:45;99104.41;;;17.15;59.53
8039;BME280;4062;49.844;8.120;2023-10-13T03:33:47;99093.72;;;17.15;59.33
8039;BME280;4062;49.844;8.120;2023-10-13T03:35:49;99093.72;;;17.15;59.51
8039;BME280;4062;49.844;8.120;2023-10-13T03:37:55;99095.53;;;17.14;59.51
8039;BME280;4062;49.844;8.120;2023-10-13T03:39:57;99089.25;;;17.15;59.43
8039;BME280;4062;49.844;8.120;2023-10-13T03:42:00;99085.72;;;17.15;59.27
8039;BME280;4062;49.844;8.120;2023-10-13T03:44:01;99094.59;;;17.15;59.20
8039;BME280;4062;49.844;8.120;2023-10-13T03:46:14;99093.72;;;17.15;59.45
8039;BME280;4062;49.844;8.120;2023-10-13T03:48:17;99094.59;;;17.15;59.38
8039;BME280;4062;49.844;8.120;2023-10-13T03:50:27;99101.72;;;17.15;59.26
8039;BME280;4062;49.844;8.120;2023-10-13T03:52:33;99108.03;;;17.14;59.61
8039;BME280;4062;49.844;8.120;2023-10-13T03:54:37;99101.72;;;17.15;59.52
8039;BME280;4062;49.844;8.120;2023-10-13T03:56:42;99104.41;;;17.15;59.40
8039;BME280;4062;49.844;8.120;2023-10-13T03:58:45;99104.41;;;17.15;59.31
8039;BME280;4062;49.844;8.120;2023-10-13T04:00:49;99099.06;;;17.15;59.45
8039;BME280;4062;49.844;8.120;2023-10-13T04:02:51;99092.88;;;17.14;59.51
8039;BME280;4062;49.844;8.120;2023-10-13T04:05:10;99094.59;;;17.15;59.33
8039;BME280;4062;49.844;8.120;2023-10-13T04:07:30;99095.53;;;17.14;59.27
8039;BME280;4062;49.844;8.120;2023-10-13T04:09:40;99093.72;;;17.15;59.30
8039;BME280;4062;49.844;8.120;2023-10-13T04:11:47;99093.72;;;17.15;59.39
8039;BME280;4062;49.844;8.120;2023-10-13T04:14:04;99091.03;;;17.15;59.38
8039;BME280;4062;49.844;8.120;2023-10-13T04:16:24;99091.03;;;17.15;59.43
8039;BME280;4062;49.844;8.120;2023-10-13T04:18:28;99088.38;;;17.15;59.56
8039;BME280;4062;49.844;8.120;2023-10-13T04:20:53;99084.88;;;17.14;59.46
8039;BME280;4062;49.844;8.120;2023-10-13T04:23:05;99085.72;;;17.15;59.49
8039;BME280;4062;49.844;8.120;2023-10-13T04:25:25;99081.34;;;17.14;59.34
8039;BME280;4062;49.844;8.120;2023-10-13T04:27:29;99087.53;;;17.14;59.55
8039;BME280;4062;49.844;8.120;2023-10-13T04:29:41;99090.19;;;17.14;59.45
8039;BME280;4062;49.844;8.120;2023-10-13T04:31:57;99085.72;;;17.15;59.26
8039;BME280;4062;49.844;8.120;2023-10-13T04:34:01;99086.59;;;17.15;59.49
8039;BME280;4062;49.844;8.120;2023-10-13T04:36:06;99077.69;;;17.15;59.43
8039;BME280;4062;49.844;8.120;2023-10-13T04:38:26;99075.03;;;17.15;59.53
8039;BME280;4062;49.844;8.120;2023-10-13T04:40:47;99067.03;;;17.15;59.49
8039;BME280;4062;49.844;8.120;2023-10-13T04:43:11;99061.69;;;17.15;59.52
8039;BME280;4062;49.844;8.120;2023-10-13T04:45:34;99064.34;;;17.15;59.37
8039;BME280;4062;49.844;8.120;2023-10-13T04:47:35;99067.03;;;17.15;59.31
8039;BME280;4062;49.844;8.120;2023-10-13T04:49:43;99051.00;;;17.15;59.53
8039;BME280;4062;49.844;8.120;2023-10-13T04:51:48;99042.16;;;17.14;59.53
8039;BME280;4062;49.844;8.120;2023-10-13T04:54:13;99045.66;;;17.15;59.51
8039;BME280;4062;49.844;8.120;2023-10-13T04:56:27;99041.22;;;17.15;59.63
8039;BME280;4062;49.844;8.120;2023-10-13T04:58:37;99040.31;;;17.15;59.47
8039;BME280;4062;49.844;8.120;2023-10-13T05:01:04;99035.00;;;17.15;59.45
8039;BME280;4062;49.844;8.120;2023-10-13T05:03:24;99043.88;;;17.15;59.56
8039;BME280;4062;49.844;8.120;2023-10-13T05:05:53;99037.66;;;17.15;59.30
8039;BME280;4062;49.844;8.120;2023-10-13T05:08:17;99031.47;;;17.14;59.40
8039;BME280;4062;49.844;8.120;2023-10-13T05:10:56;99023.47;;;17.14;59.35
8039;BME280;4062;49.844;8.120;2023-10-13T05:13:16;99023.47;;;17.14;59.57
8039;BME280;4062;49.844;8.120;2023-10-13T05:15:55;99020.78;;;17.14;59.37
8039;BME280;4062;49.844;8.120;2023-10-13T05:18:14;99024.31;;;17.15;59.59
8039;BME280;4062;49.844;8.120;2023-10-13T05:20:34;99024.31;;;17.15;59.56
8039;BME280;4062;49.844;8.120;2023-10-13T05:22:54;99023.47;;;17.14;59.70
8039;BME280;4062;49.844;8.120;2023-10-13T05:25:15;99014.50;;;17.15;59.57
8039;BME280;4062;49.844;8.120;2023-10-13T05:27:34;99014.50;;;17.15;59.50
8039;BME280;4062;49.844;8.120;2023-10-13T05:30:13;99015.47;;;17.14;59.37
8039;BME280;4062;49.844;8.120;2023-10-13T05:32:52;99018.13;;;17.14;59.35
8039;BME280;4062;49.844;8.120;2023-10-13T05:35:13;99027.84;;;17.15;59.49
8039;BME280;4062;49.844;8.120;2023-10-13T05:37:55;99028.81;;;17.14;59.61
8039;BME280;4062;49.844;8.120;2023-10-13T05:40:34;99033.19;;;17.15;59.56
8039;BME280;4062;49.844;8.120;2023-10-13T05:42:54;99038.53;;;17.15;59.39
8039;BME280;4062;49.844;8.120;2023-10-13T05:45:14;99034.13;;;17.14;59.45
8039;BME280;4062;49.844;8.120;2023-10-13T05:47:18;99045.66;;;17.15;59.37
8039;BME280;4062;49.844;8.120;2023-10-13T05:49:37;99037.66;;;17.15;59.46
8039;BME280;4062;49.844;8.120;2023-10-13T05:51:51;99033.19;;;17.15;59.37
8039;BME280;4062;49.844;8.120;2023-10-13T05:54:10;99035.00;;;17.15;59.36
8039;BME280;4062;49.844;8.120;2023-10-13T05:56:15;99032.31;;;17.15;59.51
8039;BME280;4062;49.844;8.120;2023-10-13T05:58:34;99028.81;;;17.14;59.52
8039;BME280;4062;49.844;8.120;2023-10-13T06:00:54;99026.97;;;17.15;59.23
8039;BME280;4062;49.844;8.120;2023-10-13T06:03:15;99031.47;;;17.14;59.59
8039;BME280;4062;49.844;8.120;2023-10-13T06:05:35;99040.31;;;17.15;59.37
8039;BME280;4062;49.844;8.120;2023-10-13T06:07:55;99033.19;;;17.15;59.33
8039;BME280;4062;49.844;8.120;2023-10-13T06:10:15;99035.88;;;17.15;59.36
8039;BME280;4062;49.844;8.120;2023-10-13T06:12:36;99033.19;;;17.15;59.44
8039;BME280;4062;49.844;8.120;2023-10-13T06:14:56;99029.66;;;17.15;59.62
8039;BME280;4062;49.844;8.120;2023-10-13T06:17:16;99030.53;;;17.15;59.34
8039;BME280;4062;49.844;8.120;2023-10-13T06:19:36;99025.19;;;17.15;59.37
8039;BME280;4062;49.844;8.120;2023-10-13T06:21:56;99029.66;;;17.15;59.52
8039;BME280;4062;49.844;8.120;2023-10-13T06:24:16;99027.84;;;17.15;59.40
8039;BME280;4062;49.844;8.120;2023-10-13T06:26:36;99035.88;;;17.15;59.41
8039;BME280;4062;49.844;8.120;2023-10-13T06:28:56;99029.66;;;17.15;59.28
8039;BME280;4062;49.844;8.120;2023-10-13T06:30:58;99040.31;;;17.15;59.40
8039;BME280;4062;49.844;8.120;2023-10-13T06:33:02;99045.66;;;17.15;59.50
8039;BME280;4062;49.844;8.120;2023-10-13T06:35:06;99046.53;;;17.15;59.58
8039;BME280;4062;49.844;8.120;2023-10-13T06:37:19;99040.31;;;17.15;59.58
8039;BME280;4062;49.844;8.120;2023-10-13T06:39:33;99037.66;;;17.15;59.34
8039;BME280;4062;49.844;8.120;2023-10-13T06:41:37;99034.13;;;17.14;59.48
8039;BME280;4062;49.844;8.120;2023-10-13T06:43:43;99046.53;;;17.15;59.59
8039;BME280;4062;49.844;8.120;2023-10-13T06:45:44;99043.00;;;17.15;59.50
8039;BME280;4062;49.844;8.120;2023-10-13T06:47:58;99048.34;;;17.15;59.58
8039;BME280;4062;49.844;8.120;2023-10-13T06:49:59;99046.53;;;17.15;59.54
8039;BME280;4062;49.844;8.120;2023-10-13T06:52:02;99040.31;;;17.15;59.41
8039;BME280;4062;49.844;8.120;2023-10-13T06:54:05;99044.81;;;17.14;59.38
8039;BME280;4062;49.844;8.120;2023-10-13T06:56:10;99050.16;;;17.14;59.58
8039;BME280;4062;49.844;8.120;2023-10-13T06:58:13;99040.31;;;17.15;59.32
8039;BME280;4062;49.844;8.120;2023-10-13T07:00:15;99043.88;;;17.15;59.53
8039;BME280;4062;49.844;8.120;2023-10-13T07:02:30;99048.34;;;17.15;59.41
8039;BME280;4062;49.844;8.120;2023-10-13T07:04:37;99041.22;;;17.15;59.38
8039;BME280;4062;49.844;8.120;2023-10-13T07:06:47;99043.88;;;17.15;59.52
8039;BME280;4062;49.844;8.120;2023-10-13T07:08:50;99046.53;;;17.15;59.50
8039;BME280;4062;49.844;8.120;2023-10-13T07:10:54;99050.06;;;17.16;59.49
8039;BME280;4062;49.844;8.120;2023-10-13T07:13:19;99051.88;;;17.15;59.58
8039;BME280;4062;49.844;8.120;2023-10-13T07:15:23;99051.00;;;17.15;59.39
8039;BME280;4062;49.844;8.120;2023-10-13T07:17:28;99053.66;;;17.15;59.38
8039;BME280;4062;49.844;8.120;2023-10-13T07:19:34;99058.06;;;17.16;59.57
8039;BME280;4062;49.844;8.120;2023-10-13T07:21:35;99051.88;;;17.15;59.45
8039;BME280;4062;49.844;8.120;2023-10-13T07:23:46;99051.00;;;17.15;59.59
8039;BME280;4062;49.844;8.120;2023-10-13T07:26:01;99051.00;;;17.15;59.34
8039;BME280;4062;49.844;8.120;2023-10-13T07:28:08;99057.22;;;17.15;59.43
8039;BME280;4062;49.844;8.120;2023-10-13T07:30:10;99048.34;;;17.15;59.43
8039;BME280;4062;49.844;8.120;2023-10-13T07:32:15;99055.41;;;17.16;59.63
8039;BME280;4062;49.844;8.120;2023-10-13T07:34:25;99057.22;;;17.15;59.52
8039;BME280;4062;49.844;8.120;2023-10-13T07:36:33;99058.06;;;17.16;59.51
8039;BME280;4062;49.844;8.120;2023-10-13T07:38:40;99047.38;;;17.16;59.37
8039;BME280;4062;49.844;8.120;2023-10-13T07:40:44;99046.53;;;17.15;59.56
8039;BME280;4062;49.844;8.120;2023-10-13T07:42:56;99053.66;;;17.15;59.39
8039;BME280;4062;49.844;8.120;2023-10-13T07:45:10;99050.00;;;17.17;59.63
8039;BME280;4062;49.844;8.120;2023-10-13T07:47:14;99042.06;;;17.16;59.56
8039;BME280;4062;49.844;8.120;2023-10-13T07:49:16;99047.38;;;17.16;59.70
8039;BME280;4062;49.844;8.120;2023-10-13T07:51:17;99049.22;;;17.15;59.26
8039;BME280;4062;49.844;8.120;2023-10-13T07:53:23;99056.28;;;17.16;59.43
8039;BME280;4062;49.844;8.120;2023-10-13T07:55:25;99051.88;;;17.15;59.54
8039;BME280;4062;49.844;8.120;2023-10-13T07:57:26;99045.59;;;17.16;59.45
8039;BME280;4062;49.844;8.120;2023-10-13T07:59:30;99039.38;;;17.16;59.66
8039;BME280;4062;49.844;8.120;2023-10-13T08:01:32;99042.06;;;17.16;59.39
8039;BME280;4062;49.844;8.120;2023-10-13T08:03:35;99045.59;;;17.16;59.63
8039;BME280;4062;49.844;8.120;2023-10-13T08:05:52;99039.38;;;17.16;59.45
8039;BME280;4062;49.844;8.120;2023-10-13T08:08:04;99036.72;;;17.16;59.70
8039;BME280;4062;49.844;8.120;2023-10-13T08:10:15;99036.72;;;17.16;59.63
8039;BME280;4062;49.844;8.120;2023-10-13T08:12:17;99045.59;;;17.16;59.40
8039;BME280;4062;49.844;8.120;2023-10-13T08:14:22;99034.91;;;17.16;59.34
8039;BME280;4062;49.844;8.120;2023-10-13T08:16:28;99041.22;;;17.15;59.24
8039;BME280;4062;49.844;8.120;2023-10-13T08:18:47;99039.38;;;17.16;59.49
8039;BME280;4062;49.844;8.120;2023-10-13T08:20:50;99036.72;;;17.16;59.65
8039;BME280;4062;49.844;8.120;2023-10-13T08:22:53;99039.38;;;17.16;59.63
8039;BME280;4062;49.844;8.120;2023-10-13T08:25:14;99022.53;;;17.15;59.43
8039;BME280;4062;49.844;8.120;2023-10-13T08:27:25;99019.84;;;17.15;59.56
8039;BME280;4062;49.844;8.120;2023-10-13T08:29:46;99017.19;;;17.15;59.40
8039;BME280;4062;49.844;8.120;2023-10-13T08:31:57;99017.97;;;17.17;59.36
8039;BME280;4062;49.844;8.120;2023-10-13T08:34:36;99012.69;;;17.16;59.59
8039;BME280;4062;49.844;8.120;2023-10-13T08:36:44;99004.69;;;17.16;59.58
8039;BME280;4062;49.844;8.120;2023-10-13T08:38:46;99001.16;;;17.15;59.49
8039;BME280;4062;49.844;8.120;2023-10-13T08:40:58;98996.66;;;17.16;59.63
8039;BME280;4062;49.844;8.120;2023-10-13T08:43:18;98986.00;;;17.16;59.56
8039;BME280;4062;49.844;8.120;2023-10-13T08:45:20;98989.53;;;17.16;59.55
8039;BME280;4062;49.844;8.120;2023-10-13T08:47:42;98988.66;;;17.16;59.38
8039;BME280;4062;49.844;8.120;2023-10-13T08:49:54;98980.66;;;17.16;59.36
8039;BME280;4062;49.844;8.120;2023-10-13T08:52:14;98984.19;;;17.16;59.42
8039;BME280;4062;49.844;8.120;2023-10-13T08:54:46;98981.53;;;17.16;59.49
8039;BME280;4062;49.844;8.120;2023-10-13T08:57:03;98974.38;;;17.17;59.43
8039;BME280;4062;49.844;8.120;2023-10-13T08:59:20;98960.19;;;17.16;59.56
8039;BME280;4062;49.844;8.120;2023-10-13T09:01:39;98963.69;;;17.17;59.56
8039;BME280;4062;49.844;8.120;2023-10-13T09:04:15;98961.97;;;17.16;59.33
8039;BME280;4062;49.844;8.120;2023-10-13T09:06:20;98961.97;;;17.16;59.43
8039;BME280;4062;49.844;8.120;2023-10-13T09:08:29;98951.28;;;17.16;59.32
8039;BME280;4062;49.844;8.120;2023-10-13T09:10:37;98940.63;;;17.16;59.44
8039;BME280;4062;49.844;8.120;2023-10-13T09:13:06;98933.56;;;17.15;59.40
8039;BME280;4062;49.844;8.120;2023-10-13T09:15:12;98944.16;;;17.16;59.59
8039;BME280;4062;49.844;8.120;2023-10-13T09:17:14;98947.69;;;17.17;59.57
8039;BME280;4062;49.844;8.120;2023-10-13T09:19:17;98944.16;;;17.16;59.47
8039;BME280;4062;49.844;8.120;2023-10-13T09:21:19;98947.69;;;17.17;59.62
8039;BME280;4062;49.844;8.120;2023-10-13T09:23:46;98952.16;;;17.16;59.32
8039;BME280;4062;49.844;8.120;2023-10-13T09:25:50;98950.34;;;17.17;59.38
8039;BME280;4062;49.844;8.120;2023-10-13T09:28:14;98941.50;;;17.16;59.63
8039;BME280;4062;49.844;8.120;2023-10-13T09:30:16;98942.34;;;17.17;59.38
8039;BME280;4062;49.844;8.120;2023-10-13T09:32:21;98940.63;;;17.16;59.40
8039;BME280;4062;49.844;8.120;2023-10-13T09:34:23;98947.78;;;17.15;59.44
8039;BME280;4062;49.844;8.120;2023-10-13T09:36:30;98954.84;;;17.16;59.50
8039;BME280;4062;49.844;8.120;2023-10-13T09:38:34;98952.16;;;17.16;59.59
8039;BME280;4062;49.844;8.120;2023-10-13T09:40:37;98958.34;;;17.17;59.57
8039;BME280;4062;49.844;8.120;2023-10-13T09:42:47;98955.69;;;17.17;59.59
8039;BME280;4062;49.844;8.120;2023-10-13T09:44:48;98953.88;;;17.17;59.26
8039;BME280;4062;49.844;8.120;2023-10-13T09:47:03;98955.69;;;17.17;59.41
8039;BME280;4062;49.844;8.120;2023-10-13T09:49:12;98949.50;;;17.16;59.56
8039;BME280;4062;49.844;8.120;2023-10-13T09:51:24;98947.69;;;17.17;59.52
8039;BME280;4062;49.844;8.120;2023-10-13T09:53:26;98946.84;;;17.16;59.66
8039;BME280;4062;49.844;8.120;2023-10-13T09:55:32;98947.69;;;17.17;59.37
8039;BME280;4062;49.844;8.120;2023-10-13T09:57:39;98947.69;;;17.17;59.58
8039;BME280;4062;49.844;8.120;2023-10-13T10:00:02;98950.34;;;17.17;59.35
8039;BME280;4062;49.844;8.120;2023-10-13T10:02:12;98944.16;;;17.16;59.55
8039;BME280;4062;49.844;8.120;2023-10-13T10:04:19;98948.56;;;17.17;59.50
8039;BME280;4062;49.844;8.120;2023-10-13T10:06:24;98958.34;;;17.17;59.58
8039;BME280;4062;49.844;8.120;2023-10-13T10:08:30;98955.69;;;17.17;59.56
8039;BME280;4062;49.844;8.120;2023-10-13T10:10:59;98951.22;;;17.17;59.56
8039;BME280;4062;49.844;8.120;2023-10-13T10:13:08;98952.16;;;17.16;59.47
8039;BME280;4062;49.844;8.120;2023-10-13T10:17:21;98937.00;;;17.17;59.33
8039;BME280;4062;49.844;8.120;2023-10-13T10:19:23;98932.53;;;17.17;59.50
8039;BME280;4062;49.844;8.120;2023-10-13T10:21:34;98928.03;;;17.18;59.50
8039;BME280;4062;49.844;8.120;2023-10-13T10:23:36;98927.19;;;17.17;59.50
8039;BME280;4062;49.844;8.120;2023-10-13T10:25:40;98925.47;;;17.16;59.49
8039;BME280;4062;49.844;8.120;2023-10-13T10:27:58;98928.03;;;17.18;59.57
8039;BME280;4062;49.844;8.120;2023-10-13T10:30:00;98928.03;;;17.18;59.29
8039;BME280;4062;49.844;8.120;2023-10-13T10:32:13;98934.31;;;17.17;59.31
8039;BME280;4062;49.844;8.120;2023-10-13T10:34:15;98933.38;;;17.18;59.36
8039;BME280;4062;49.844;8.120;2023-10-13T10:36:31;98932.53;;;17.17;59.33
8039;BME280;4062;49.844;8.120;2023-10-13T10:38:33;98925.47;;;17.16;59.50
8039;BME280;4062;49.844;8.120;2023-10-13T10:43:00;98921.84;;;17.17;59.35
8039;BME280;4062;49.844;8.120;2023-10-13T10:45:10;98920.97;;;17.17;59.32
8039;BME280;4062;49.844;8.120;2023-10-13T10:47:16;98909.47;;;17.16;59.49
8039;BME280;4062;49.844;8.120;2023-10-13T10:49:20;98913.84;;;17.17;59.59
8039;BME280;4062;49.844;8.120;2023-10-13T10:51:32;98893.44;;;17.16;59.55
8039;BME280;4062;49.844;8.120;2023-10-13T10:53:35;98896.97;;;17.17;59.50
8039;BME280;4062;49.844;8.120;2023-10-13T10:55:44;98903.19;;;17.17;59.46
8039;BME280;4062;49.844;8.120;2023-10-13T10:57:46;98903.19;;;17.17;59.51
8039;BME280;4062;49.844;8.120;2023-10-13T10:59:50;98889.81;;;17.17;59.41
8039;BME280;4062;49.844;8.120;2023-10-13T11:02:10;98883.59;;;17.17;59.57
8039;BME280;4062;49.844;8.120;2023-10-13T11:04:16;98884.50;;;17.17;59.49
8039;BME280;4062;49.844;8.120;2023-10-13T11:06:26;98880.00;;;17.18;59.39
8039;BME280;4062;49.844;8.120;2023-10-13T11:08:28;98878.28;;;17.17;59.51
8039;BME280;4062;49.844;8.120;2023-10-13T11:10:46;98872.94;;;17.17;59.54
8039;BME280;4062;49.844;8.120;2023-10-13T11:12:55;98872.94;;;17.17;59.46
8039;BME280;4062;49.844;8.120;2023-10-13T11:15:03;98864.91;;;17.17;59.50
8039;BME280;4062;49.844;8.120;2023-10-13T11:17:22;98865.81;;;17.17;59.45
8039;BME280;4062;49.844;8.120;2023-10-13T11:19:47;98852.44;;;17.17;59.52
8039;BME280;4062;49.844;8.120;2023-10-13T11:21:49;98855.97;;;17.18;59.46
8039;BME280;4062;49.844;8.120;2023-10-13T11:23:57;98852.44;;;17.17;59.44
8039;BME280;4062;49.844;8.120;2023-10-13T11:26:04;98853.31;;;17.18;59.46
8039;BME280;4062;49.844;8.120;2023-10-13T11:28:16;98846.25;;;17.17;59.38
8039;BME280;4062;49.844;8.120;2023-10-13T11:30:19;98832.03;;;17.16;59.46
8039;BME280;4062;49.844;8.120;2023-10-13T11:32:25;98823.94;;;17.18;59.49
8039;BME280;4062;49.844;8.120;2023-10-13T11:34:30;98814.22;;;17.17;59.48
8039;BME280;4062;49.844;8.120;2023-10-13T11:36:40;98808.88;;;17.17;59.48
8039;BME280;4062;49.844;8.120;2023-10-13T11:38:41;98809.75;;;17.17;59.29
8039;BME280;4062;49.844;8.120;2023-10-13T11:43:07;98808.03;;;17.16;59.42
8039;BME280;4062;49.844;8.120;2023-10-13T11:45:14;98801.81;;;17.16;59.50
8039;BME280;4062;49.844;8.120;2023-10-13T11:47:37;98803.53;;;17.17;59.36
8039;BME280;4062;49.844;8.120;2023-10-13T11:49:59;98795.53;;;17.17;59.37
8039;BME280;4062;49.844;8.120;2023-10-13T11:52:01;98803.53;;;17.17;59.51